Time;durP1;ratioP1;P1;durP2;ratioP2;P2;SDS_P1;SDS_P2;PMS_P1;PMS_P2;Temp;Humidity;BMP_temperature;BMP_pressure;BME280_temperature;BME280_humidity;BME280_pressure;Samples;Min_cycle;Max_cycle;Signal;HPM_P1;HPM_P2
2021/10/03 00:02:14;;;;;;;;;3.00;3.00;;;;;16.41;83.89;98423.56;4602362;28;2753415;-80
2021/10/03 00:04:43;;;;;;;;;3.80;1.00;;;;;16.44;83.95;98427.75;4625083;28;2737754;-81
2021/10/03 00:07:11;;;;;;;;;1.67;1.67;;;;;16.44;83.56;98430.44;4621096;28;2744005;-80
2021/10/03 00:09:40;;;;;;;;;3.00;1.83;;;;;16.30;84.10;98395.28;4642885;28;2741948;-81
2021/10/03 00:12:07;;;;;;;;;1.60;1.60;;;;;16.42;83.67;98433.28;4625547;28;2732560;-81
2021/10/03 00:14:35;;;;;;;;;3.00;2.00;;;;;16.48;84.01;98426.38;4601790;28;2744059;-81
2021/10/03 00:17:03;;;;;;;;;3.20;2.20;;;;;16.47;84.13;98414.81;4620219;28;2754412;-81
2021/10/03 00:19:30;;;;;;;;;1.60;1.60;;;;;16.49;83.92;98420.00;4621142;28;2731500;-81
2021/10/03 00:21:58;;;;;;;;;4.20;1.00;;;;;16.49;84.01;98414.63;4620652;28;2739876;-81
2021/10/03 00:24:26;;;;;;;;;2.00;2.00;;;;;16.50;83.54;98419.00;4601834;28;2750297;-81
2021/10/03 00:26:52;;;;;;;;;2.67;2.00;;;;;16.51;83.62;98418.00;4576901;28;2750285;-81
2021/10/03 00:29:20;;;;;;;;;3.00;3.00;;;;;16.50;83.75;98421.66;4642622;28;2740907;-81
2021/10/03 00:31:47;;;;;;;;;3.00;3.00;;;;;16.44;83.48;98399.06;4621680;28;2733623;-82
2021/10/03 00:34:15;;;;;;;;;2.00;2.00;;;;;16.55;83.09;98430.03;4620757;28;2732609;-79
2021/10/03 00:36:43;;;;;;;;;3.80;2.80;;;;;16.49;83.08;98407.44;4620763;28;2740922;-81
2021/10/03 00:39:10;;;;;;;;;6.60;3.60;;;;;16.53;82.92;98398.03;4620179;28;2749216;-81
2021/10/03 00:41:38;;;;;;;;;2.40;2.00;;;;;16.56;83.52;98397.66;4602118;28;2742320;-81
2021/10/03 00:44:07;;;;;;;;;2.50;1.83;;;;;16.52;83.44;98388.31;4602154;28;2741275;-80
2021/10/03 00:46:34;;;;;;;;;3.60;3.00;;;;;16.56;83.06;98405.72;4624611;28;2741991;-82
2021/10/03 00:49:02;;;;;;;;;2.40;2.00;;;;;16.59;82.92;98401.00;4610378;28;2723218;-82
2021/10/03 00:51:30;;;;;;;;;3.00;3.00;;;;;16.52;83.37;98388.31;4615313;28;2736716;-79
2021/10/03 00:53:57;;;;;;;;;2.80;2.80;;;;;16.58;83.32;98394.81;4610747;28;2738158;-83
2021/10/03 00:56:26;;;;;;;;;3.33;3.33;;;;;16.57;82.97;98387.75;4614025;28;2739909;-83
2021/10/03 00:58:54;;;;;;;;;3.60;3.00;;;;;16.51;82.70;98367.84;4622646;28;2743355;-83
2021/10/03 01:01:21;;;;;;;;;3.33;3.33;;;;;16.63;83.21;98392.44;4575288;28;2752428;-83
2021/10/03 01:03:49;;;;;;;;;3.60;2.80;;;;;16.62;83.00;98387.25;4641486;28;2737752;-83
2021/10/03 01:06:15;;;;;;;;;4.00;3.00;;;;;16.62;83.56;98379.22;4593340;28;2753454;-82
2021/10/03 01:08:43;;;;;;;;;3.20;2.00;;;;;16.62;82.97;98379.22;4640997;28;2735695;-82
2021/10/03 01:11:10;;;;;;;;;3.20;2.60;;;;;16.56;83.13;98361.97;4619148;28;2731578;-82
2021/10/03 01:13:39;;;;;;;;;4.83;4.00;;;;;16.62;83.48;98376.53;4618677;28;2747164;-83
2021/10/03 01:16:07;;;;;;;;;4.80;3.40;;;;;16.54;83.39;98348.72;4640294;28;2744027;-83
2021/10/03 01:18:35;;;;;;;;;3.00;3.00;;;;;16.53;83.38;98349.75;4618272;28;2748185;-82
2021/10/03 01:21:06;;;;;;;;;3.00;3.00;;;;;16.51;83.20;98345.56;4614280;28;2753409;-83
2021/10/03 01:23:35;;;;;;;;;4.60;4.00;;;;;16.56;83.52;98346.69;4640509;28;2752761;-82
2021/10/03 01:26:03;;;;;;;;;3.20;2.00;;;;;16.56;83.20;98348.56;4620284;28;2736744;-83
2021/10/03 01:28:30;;;;;;;;;2.40;1.80;;;;;16.58;83.56;98340.34;4620148;28;2725278;-83
2021/10/03 01:30:56;;;;;;;;;4.67;4.00;;;;;16.54;83.69;98335.28;4592883;28;2754855;-83
2021/10/03 01:33:25;;;;;;;;;3.33;3.33;;;;;16.51;83.39;98334.84;4626259;28;2748193;-83
2021/10/03 01:35:51;;;;;;;;;3.00;3.00;;;;;16.55;83.38;98331.59;4615400;28;2750312;-84
2021/10/03 01:38:21;;;;;;;;;4.67;3.67;;;;;16.60;82.96;98320.34;4640127;28;2736747;-83
2021/10/03 01:40:48;;;;;;;;;3.00;3.00;;;;;16.63;83.49;98332.56;4615260;28;2752761;-83
2021/10/03 01:43:16;;;;;;;;;3.00;3.00;;;;;16.61;83.18;98316.66;4641190;28;2740250;-84
2021/10/03 01:45:45;;;;;;;;;3.00;3.00;;;;;16.60;83.41;98317.66;4617953;28;2748200;-85
2021/10/03 01:48:16;;;;;;;;;5.00;5.00;;;;;16.61;83.10;98323.88;4592985;28;2742989;-85
2021/10/03 01:50:43;;;;;;;;;6.60;3.00;;;;;16.62;83.20;98317.50;4640787;28;2751362;-84
2021/10/03 01:53:14;;;;;;;;;3.60;3.60;;;;;16.54;82.93;98299.59;4619065;28;2740898;-85
2021/10/03 01:55:42;;;;;;;;;3.00;3.00;;;;;16.57;82.69;98285.81;4593191;28;2739846;-85
2021/10/03 01:58:10;;;;;;;;;4.00;3.20;;;;;16.59;83.18;98291.00;4639385;28;2735707;-84
2021/10/03 02:00:37;;;;;;;;;5.00;3.00;;;;;16.58;82.91;98297.41;4593599;28;2754507;-85
2021/10/03 02:03:07;;;;;;;;;5.80;4.80;;;;;16.57;82.85;98288.50;4640145;28;2750310;-85
2021/10/03 02:05:40;;;;;;;;;6.60;5.00;;;;;16.44;83.12;98266.81;4618422;28;2740930;-83
2021/10/03 02:08:09;;;;;;;;;4.60;4.40;;;;;16.55;82.97;98279.81;4600192;28;2740947;-85
2021/10/03 02:10:40;;;;;;;;;6.20;4.00;;;;;16.52;83.06;98250.69;4616623;28;2744431;-85
2021/10/03 02:13:07;;;;;;;;;4.00;4.00;;;;;16.51;83.25;98260.56;4574937;28;2749235;-85
2021/10/03 02:15:33;;;;;;;;;5.00;5.00;;;;;16.52;83.36;98259.53;4607755;28;1833155;-85
2021/10/03 02:17:58;;;;;;;;;5.33;5.33;;;;;16.46;83.20;98238.81;4597599;28;2746114;-84
2021/10/03 02:20:25;;;;;;;;;7.00;4.33;;;;;16.51;82.66;98240.94;4630653;28;2750302;-85
2021/10/03 02:22:53;;;;;;;;;4.00;4.00;;;;;16.51;82.98;98233.72;4622363;28;2745091;-85
2021/10/03 02:25:21;;;;;;;;;6.80;5.00;;;;;16.35;83.27;98202.50;4618141;28;2745048;-85
2021/10/03 02:27:48;;;;;;;;;4.00;4.00;;;;;16.38;82.78;98204.00;4617508;28;2744071;-85
2021/10/03 02:30:14;;;;;;;;;3.00;3.00;;;;;16.48;83.31;98212.63;4592859;28;2754475;-84
2021/10/03 02:32:40;;;;;;;;;7.00;4.33;;;;;16.52;83.06;98229.22;4614831;28;2746118;-85
2021/10/03 02:35:09;;;;;;;;;4.50;4.50;;;;;16.47;82.96;98234.28;4637593;28;2745092;-85
2021/10/03 02:37:37;;;;;;;;;6.00;5.00;;;;;16.50;82.91;98216.00;4639935;28;2746135;-84
2021/10/03 02:40:08;;;;;;;;;5.40;5.00;;;;;16.39;82.75;98190.41;4600086;28;2741924;-84
2021/10/03 02:42:36;;;;;;;;;5.00;5.00;;;;;16.39;82.94;98189.59;4618065;28;2743030;-85
2021/10/03 02:45:07;;;;;;;;;6.00;5.60;;;;;16.37;82.70;98168.31;4618194;28;2748197;-85
2021/10/03 02:47:33;;;;;;;;;5.00;4.00;;;;;16.46;82.92;98190.53;4592990;28;2743386;-82
2021/10/03 02:49:59;;;;;;;;;4.67;4.00;;;;;16.47;82.91;98197.56;4626851;28;2752348;-83
2021/10/03 02:52:25;;;;;;;;;6.67;5.67;;;;;16.40;82.27;98183.19;4626694;28;2746101;-83
2021/10/03 02:54:53;;;;;;;;;5.00;5.00;;;;;16.39;83.06;98173.50;4638460;28;2748173;-83
2021/10/03 02:57:20;;;;;;;;;8.00;5.00;;;;;16.39;82.85;98166.28;4617985;28;2745069;-83
2021/10/03 02:59:46;;;;;;;;;4.00;4.00;;;;;16.44;82.47;98175.63;4574391;28;2743041;-84
2021/10/03 03:02:12;;;;;;;;;6.67;5.33;;;;;16.28;82.58;98158.66;4630146;28;2747220;-83
2021/10/03 03:04:37;;;;;;;;;7.00;6.00;;;;;16.43;82.69;98180.16;4628994;28;2737825;-83
2021/10/03 03:07:03;;;;;;;;;6.33;4.33;;;;;16.38;82.38;98163.78;4630977;28;2750288;-83
2021/10/03 03:09:29;;;;;;;;;5.00;5.00;;;;;16.41;82.56;98179.50;4621368;28;2736756;-84
2021/10/03 03:11:57;;;;;;;;;4.40;4.00;;;;;16.40;82.44;98175.16;4599056;28;2740977;-83
2021/10/03 03:14:23;;;;;;;;;5.67;4.33;;;;;16.40;82.04;98161.75;4592185;28;2746180;-84
2021/10/03 03:16:51;;;;;;;;;4.67;4.00;;;;;16.41;82.44;98166.09;4629563;28;2742961;-83
2021/10/03 03:19:19;;;;;;;;;5.60;5.60;;;;;16.39;82.05;98154.72;4639896;28;2736795;-83
2021/10/03 03:21:47;;;;;;;;;6.00;5.20;;;;;16.38;82.35;98159.25;4602181;28;2729817;-84
2021/10/03 03:24:14;;;;;;;;;6.40;6.40;;;;;16.28;82.52;98133.72;4620493;28;2743379;-84
2021/10/03 03:26:40;;;;;;;;;4.33;4.33;;;;;16.29;82.07;98141.56;4595595;28;2746182;-85
2021/10/03 03:29:07;;;;;;;;;5.75;5.75;;;;;16.35;82.42;98142.69;4642351;28;2737208;-84
2021/10/03 03:31:32;;;;;;;;;5.00;4.33;;;;;16.34;82.28;98149.06;4617715;28;2742973;-84
2021/10/03 03:33:58;;;;;;;;;4.67;4.67;;;;;16.35;82.34;98145.38;4632466;28;2742939;-84
2021/10/03 03:36:26;;;;;;;;;6.00;5.60;;;;;16.32;82.39;98151.13;4642884;28;2746149;-84
2021/10/03 03:38:51;;;;;;;;;4.67;4.00;;;;;16.33;82.59;98169.69;4615472;28;2746163;-84
2021/10/03 03:41:18;;;;;;;;;5.00;5.00;;;;;16.38;82.54;98182.56;4641428;28;2739904;-84
2021/10/03 03:43:45;;;;;;;;;4.00;4.00;;;;;16.19;82.40;98173.16;4620352;28;2742313;-84
2021/10/03 03:46:11;;;;;;;;;5.33;4.00;;;;;16.16;82.56;98177.03;4594219;28;2740890;-84
2021/10/03 03:48:37;;;;;;;;;5.67;5.67;;;;;16.24;83.28;98186.03;4640882;28;2734688;-84
2021/10/03 03:51:05;;;;;;;;;6.00;6.00;;;;;16.25;83.00;98199.25;4642880;28;2731544;-84
2021/10/03 03:53:33;;;;;;;;;10.33;6.17;;;;;16.21;83.36;98195.25;4619189;28;2747600;-84
2021/10/03 03:56:01;;;;;;;;;5.00;3.80;;;;;16.03;83.86;98168.72;4642561;28;2750284;-83
2021/10/03 03:58:29;;;;;;;;;5.40;5.00;;;;;16.10;83.87;98184.94;4618975;28;2737802;-84
2021/10/03 04:00:57;;;;;;;;;6.80;5.80;;;;;16.12;83.82;98183.75;4620395;28;2738858;-84
2021/10/03 04:03:24;;;;;;;;;7.20;5.60;;;;;15.96;83.56;98179.34;4602300;28;2734632;-84
2021/10/03 04:05:52;;;;;;;;;5.00;5.00;;;;;15.96;83.93;98181.19;4618995;28;2746094;-84
2021/10/03 04:08:19;;;;;;;;;5.00;5.00;;;;;16.07;84.27;98199.53;4593564;28;2746161;-84
2021/10/03 04:10:45;;;;;;;;;8.00;5.33;;;;;16.02;84.37;98193.88;4616334;28;2747255;-84
2021/10/03 04:13:13;;;;;;;;;9.20;6.60;;;;;16.05;84.12;98214.97;4639586;28;2747152;-84
2021/10/03 04:15:40;;;;;;;;;5.80;5.80;;;;;16.05;84.45;98214.97;4642631;28;2734657;-84
2021/10/03 04:18:08;;;;;;;;;5.00;5.00;;;;;16.05;84.94;98231.88;4600924;28;2745472;-83
2021/10/03 04:20:35;;;;;;;;;5.20;5.20;;;;;16.03;84.85;98207.09;4601849;28;2737746;-84
2021/10/03 04:23:03;;;;;;;;;5.40;4.40;;;;;16.11;84.59;98273.22;4619913;28;2742998;-84
2021/10/03 04:25:31;;;;;;;;;2.60;1.00;;;;;16.05;84.00;98214.97;4621442;28;2728418;-83
2021/10/03 04:27:58;;;;;;;;;1.00;1.00;;;;;15.95;82.96;98211.69;4619578;28;2739931;-83
2021/10/03 04:30:26;;;;;;;;;0.00;0.00;;;;;15.94;82.80;98258.25;4621617;28;2727731;-83
2021/10/03 04:32:54;;;;;;;;;1.00;0.00;;;;;15.77;82.41;98194.00;4621044;28;2733630;-83
2021/10/03 04:35:21;;;;;;;;;0.00;0.00;;;;;15.61;83.28;98197.59;4621675;28;2725341;-83
2021/10/03 04:37:49;;;;;;;;;0.20;0.00;;;;;15.59;83.75;98255.88;4621967;28;2725306;-83
2021/10/03 04:40:16;;;;;;;;;0.00;0.00;;;;;15.42;83.63;98254.25;4620802;28;2724260;-83
2021/10/03 04:42:45;;;;;;;;;0.00;0.00;;;;;15.47;83.63;98251.88;4621300;28;2724243;-83
2021/10/03 04:45:13;;;;;;;;;0.00;0.00;;;;;15.38;83.07;98258.25;4622083;28;2712822;-83
2021/10/03 04:47:42;;;;;;;;;0.00;0.00;;;;;15.12;83.20;98233.44;4623407;28;2704442;-83
2021/10/03 04:50:11;;;;;;;;;0.00;0.00;;;;;15.07;83.39;98270.56;4605565;28;2692528;-83
2021/10/03 04:52:43;;;;;;;;;0.00;0.00;;;;;15.10;82.93;98266.72;4624153;28;2691974;-83
2021/10/03 04:55:12;;;;;;;;;0.00;0.00;;;;;15.04;83.18;98297.66;4623609;28;2704446;-83
2021/10/03 04:57:39;;;;;;;;;0.00;0.00;;;;;14.98;83.31;98290.31;4623960;28;2691998;-83
2021/10/03 05:00:09;;;;;;;;;0.20;0.00;;;;;14.78;83.57;98271.09;4623035;28;2704457;-83
2021/10/03 05:02:36;;;;;;;;;0.00;0.00;;;;;14.87;83.58;98272.75;4623308;28;2701341;-83
2021/10/03 05:05:05;;;;;;;;;0.00;0.00;;;;;14.91;83.85;98290.16;4621747;28;2694398;-83
2021/10/03 05:07:33;;;;;;;;;0.00;0.00;;;;;14.81;83.78;98282.28;4624045;28;2705487;-83
2021/10/03 05:10:01;;;;;;;;;0.00;0.00;;;;;14.76;83.60;98263.22;4621363;28;2703405;-83
2021/10/03 05:12:28;;;;;;;;;0.00;0.00;;;;;14.77;83.68;98259.56;4624051;28;2691953;-83
2021/10/03 05:14:55;;;;;;;;;0.00;0.00;;;;;14.78;83.36;98289.84;4623113;28;2696092;-84
2021/10/03 05:17:23;;;;;;;;;0.00;0.00;;;;;14.72;83.42;98291.34;4622927;28;2691945;-84
2021/10/03 05:19:50;;;;;;;;;0.00;0.00;;;;;14.64;83.89;98267.25;4622293;28;2704473;-84
2021/10/03 05:22:18;;;;;;;;;0.00;0.00;;;;;14.64;83.40;98262.72;4623050;28;2701359;-84
2021/10/03 05:24:45;;;;;;;;;0.00;0.00;;;;;14.57;83.69;98252.84;4622289;28;2697177;-83
2021/10/03 05:27:13;;;;;;;;;0.00;0.00;;;;;14.65;83.83;98275.09;4620889;28;2702692;-83
2021/10/03 05:29:40;;;;;;;;;0.00;0.00;;;;;14.59;83.89;98297.16;4622171;28;2700283;-83
2021/10/03 05:32:08;;;;;;;;;0.00;0.00;;;;;14.62;83.58;98315.56;4620616;28;2697214;-84
2021/10/03 05:34:35;;;;;;;;;0.00;0.00;;;;;14.56;83.82;98331.38;4622187;28;2701321;-84
2021/10/03 05:37:03;;;;;;;;;0.00;0.00;;;;;14.61;83.82;98339.75;4622955;28;2691965;-84
2021/10/03 05:39:31;;;;;;;;;0.00;0.00;;;;;14.60;83.95;98336.22;4622504;28;2709629;-83
2021/10/03 05:41:58;;;;;;;;;0.40;0.00;;;;;14.56;83.57;98323.38;4623689;28;2698223;-83
2021/10/03 05:44:26;;;;;;;;;0.00;0.00;;;;;14.53;84.03;98318.34;4622127;28;2691964;-83
2021/10/03 05:46:53;;;;;;;;;0.00;0.00;;;;;14.54;83.90;98330.72;4623077;28;2700286;-83
2021/10/03 05:49:21;;;;;;;;;0.00;0.00;;;;;14.55;83.86;98329.72;4621385;28;2701348;-84
2021/10/03 05:51:48;;;;;;;;;0.00;0.00;;;;;14.52;83.44;98322.03;4622445;28;2708624;-83
2021/10/03 05:54:16;;;;;;;;;0.00;0.00;;;;;14.53;83.20;98321.03;4622301;28;2700294;-83
2021/10/03 05:56:43;;;;;;;;;0.00;0.00;;;;;14.41;83.68;98294.59;4620526;28;2712791;-83
2021/10/03 05:59:14;;;;;;;;;0.00;0.00;;;;;14.39;83.38;98311.81;4622087;28;2704422;-83
2021/10/03 06:01:41;;;;;;;;;0.00;0.00;;;;;14.30;83.94;98301.09;4621924;28;2708643;-83
2021/10/03 06:04:09;;;;;;;;;2.60;2.60;;;;;14.40;83.49;98343.72;4619350;28;2741971;-84
2021/10/03 06:06:36;;;;;;;;;0.00;0.00;;;;;14.27;83.66;98330.81;4618726;28;2721127;-83
2021/10/03 06:09:04;;;;;;;;;3.00;3.00;;;;;14.37;84.00;98311.16;4619131;28;2747167;-83
2021/10/03 06:11:32;;;;;;;;;0.00;0.00;;;;;14.38;84.01;98328.84;4601969;28;2727358;-83
2021/10/03 06:13:59;;;;;;;;;0.00;0.00;;;;;14.39;84.40;98334.03;4619954;28;2728390;-83
2021/10/03 06:16:27;;;;;;;;;0.00;0.00;;;;;14.36;84.11;98320.16;4619652;28;2704457;-83
2021/10/03 06:18:54;;;;;;;;;0.00;0.00;;;;;14.36;83.97;98331.69;4621096;28;2714929;-84
2021/10/03 06:21:22;;;;;;;;;0.00;0.00;;;;;14.18;83.88;98294.41;4620214;28;2716948;-83
2021/10/03 06:23:49;;;;;;;;;0.00;0.00;;;;;14.08;83.86;98291.00;4621017;28;2704452;-83
2021/10/03 06:26:18;;;;;;;;;0.00;0.00;;;;;14.12;84.12;98297.72;4621531;28;2700295;-83
2021/10/03 06:28:45;;;;;;;;;0.00;0.00;;;;;14.07;84.19;98284.03;4620690;28;2699253;-84
2021/10/03 06:31:13;;;;;;;;;0.00;0.00;;;;;14.01;84.24;98281.97;4620016;28;2706560;-84
2021/10/03 06:33:40;;;;;;;;;0.20;0.00;;;;;14.03;84.35;98285.34;4619328;28;2712813;-83
2021/10/03 06:36:07;;;;;;;;;19.33;18.00;;;;;14.23;84.23;98344.69;4589587;28;3564843;-83
2021/10/03 06:38:34;;;;;;;;;0.00;0.00;;;;;14.18;84.37;98281.03;4641155;28;2725635;-83
2021/10/03 06:41:02;;;;;;;;;0.00;0.00;;;;;14.09;84.47;98282.84;4621983;28;2701336;-84
2021/10/03 06:43:33;;;;;;;;;26.80;25.60;;;;;14.06;84.55;98291.19;4574264;28;3591946;-84
2021/10/03 06:46:01;;;;;;;;;1.20;1.20;;;;;14.06;84.68;98296.53;4639286;28;2737810;-85
2021/10/03 06:48:29;;;;;;;;;0.00;0.00;;;;;14.06;84.77;98312.56;4619977;28;2724252;-85
2021/10/03 06:50:58;;;;;;;;;5.60;4.40;;;;;14.20;85.29;98337.81;4617916;28;2739911;-85
2021/10/03 06:53:26;;;;;;;;;2.20;1.40;;;;;14.23;85.14;98353.53;4599784;28;2741923;-84
2021/10/03 06:55:53;;;;;;;;;2.00;1.60;;;;;14.28;84.79;98340.53;4618248;28;2738845;-84
2021/10/03 06:58:20;;;;;;;;;13.50;12.25;;;;;14.25;84.33;98340.84;4609685;28;1840074;-84
2021/10/03 07:00:47;;;;;;;;;27.00;26.20;;;;;14.31;84.26;98364.25;4619371;28;3583588;-84
2021/10/03 07:03:14;;;;;;;;;47.20;39.40;;;;;14.25;84.45;98362.25;4590607;28;3585632;-84
2021/10/03 07:05:40;;;;;;;;;21.00;17.40;;;;;14.31;84.59;98382.97;4597082;28;2831508;-85
2021/10/03 07:08:08;;;;;;;;;27.29;27.00;;;;;14.23;84.52;98380.25;4633175;28;3591910;-85
2021/10/03 07:10:35;;;;;;;;;27.40;26.20;;;;;14.28;84.51;98390.47;4610786;28;3598152;-85
2021/10/03 07:13:02;;;;;;;;;24.00;22.33;;;;;14.27;84.69;98380.78;4631901;28;3584665;-85
2021/10/03 07:15:29;;;;;;;;;33.20;30.80;;;;;14.23;84.57;98385.59;4631015;28;3603390;-85
2021/10/03 07:17:55;;;;;;;;;7.00;6.00;;;;;14.25;84.63;98380.09;4619744;28;2737126;-84
2021/10/03 07:20:23;;;;;;;;;5.40;4.80;;;;;14.29;84.81;98384.13;4643974;28;2733972;-86
2021/10/03 07:22:48;;;;;;;;;15.00;11.33;;;;;14.29;84.71;98381.44;4592997;28;3529443;-81
2021/10/03 07:25:15;;;;;;;;;30.20;28.60;;;;;14.33;84.69;98396.16;4637181;28;3591918;-81
2021/10/03 07:27:42;;;;;;;;;34.25;30.25;;;;;14.36;84.65;98405.69;4616262;28;1844048;-81
2021/10/03 07:30:07;;;;;;;;;11.00;11.00;;;;;14.28;84.59;98391.31;4575572;28;2799587;-81
2021/10/03 07:32:34;;;;;;;;;62.00;49.00;;;;;14.33;84.58;98398.84;4627299;28;3605455;-82
2021/10/03 07:35:02;;;;;;;;;13.20;12.20;;;;;14.36;84.67;98408.38;4631592;28;3522077;-82
2021/10/03 07:37:30;;;;;;;;;3.83;3.83;;;;;14.30;84.98;98410.69;4624159;28;2744063;-82
2021/10/03 07:39:57;;;;;;;;;50.00;41.60;;;;;14.35;84.79;98422.72;4620068;28;3577337;-80
2021/10/03 07:42:26;;;;;;;;;0.17;0.00;;;;;14.31;84.45;98406.19;4642646;28;2739892;-81
2021/10/03 07:44:53;;;;;;;;;0.60;0.60;;;;;14.35;84.97;98414.72;4643798;28;2730509;-82
2021/10/03 07:47:20;;;;;;;;;7.20;7.20;;;;;14.26;84.76;98403.97;4620529;28;2741955;-80
2021/10/03 07:49:48;;;;;;;;;0.00;0.00;;;;;14.38;85.06;98419.72;4621433;28;2726338;-81
2021/10/03 07:52:14;;;;;;;;;20.00;16.67;;;;;14.28;84.66;98415.38;4594560;28;3576635;-81
2021/10/03 07:54:40;;;;;;;;;6.33;5.00;;;;;14.38;84.79;98435.78;4641352;28;2744008;-81
2021/10/03 07:57:08;;;;;;;;;0.80;0.00;;;;;14.35;84.75;98418.25;4622047;28;2722174;-81
2021/10/03 07:59:36;;;;;;;;;0.00;0.00;;;;;14.35;85.04;98428.94;4603826;28;2725304;-81
2021/10/03 08:02:03;;;;;;;;;0.40;0.00;;;;;14.41;84.84;98430.09;4620487;28;2725302;-81
2021/10/03 08:04:31;;;;;;;;;0.20;0.20;;;;;14.41;84.70;98433.63;4621280;28;2722553;-81
2021/10/03 08:06:59;;;;;;;;;0.00;0.00;;;;;14.37;84.66;98424.25;4620639;28;2733615;-81
2021/10/03 08:09:27;;;;;;;;;24.00;23.33;;;;;14.33;85.06;98433.59;4619671;28;1843050;-81
2021/10/03 08:11:54;;;;;;;;;5.67;3.67;;;;;14.37;84.68;98453.66;4593808;28;2745157;-81
2021/10/03 08:14:21;;;;;;;;;24.80;24.60;;;;;14.43;84.52;98457.53;4617464;28;3592975;-80
2021/10/03 08:16:49;;;;;;;;;14.17;13.33;;;;;14.42;84.66;98462.06;4645217;28;1826340;-80
2021/10/03 08:19:17;;;;;;;;;2.80;1.60;;;;;14.41;84.73;98460.38;4642586;28;2741963;-80
2021/10/03 08:21:45;;;;;;;;;9.67;6.83;;;;;14.38;85.17;98459.84;4620512;28;2739845;-81
2021/10/03 08:24:12;;;;;;;;;21.67;21.67;;;;;14.35;85.02;98436.97;4615226;28;3582592;-80
2021/10/03 08:26:38;;;;;;;;;25.50;23.50;;;;;14.48;85.15;98444.53;4633174;28;2848238;-81
2021/10/03 08:29:05;;;;;;;;;43.80;37.20;;;;;14.40;84.97;98431.94;4607712;28;3603320;-81
2021/10/03 08:31:33;;;;;;;;;4.40;4.40;;;;;14.50;85.26;98451.38;4641698;28;2745453;-81
2021/10/03 08:34:00;;;;;;;;;4.40;4.40;;;;;14.40;85.26;98442.63;4618537;28;2748201;-81
2021/10/03 08:36:27;;;;;;;;;31.60;29.00;;;;;14.55;85.11;98466.09;4595422;28;3595067;-81
2021/10/03 08:38:54;;;;;;;;;1.33;1.33;;;;;14.57;85.23;98480.16;4617208;28;2729516;-83
2021/10/03 08:41:22;;;;;;;;;1.00;0.40;;;;;14.54;85.16;98486.66;4620914;28;2729440;-82
2021/10/03 08:43:52;;;;;;;;;4.67;3.50;;;;;14.58;85.12;98488.00;4620805;28;2744063;-83
2021/10/03 08:46:27;;;;;;;;;11.20;10.80;;;;;14.70;85.49;98509.16;4620139;28;3505439;-82
2021/10/03 08:48:55;;;;;;;;;5.00;5.00;;;;;14.72;85.51;98501.78;4641413;28;2742000;-82
2021/10/03 08:51:24;;;;;;;;;2.20;2.00;;;;;14.74;85.79;98497.13;4619657;28;2735704;-83
2021/10/03 08:53:52;;;;;;;;;1.60;1.20;;;;;14.80;85.40;98518.69;4619550;28;2745092;-82
2021/10/03 08:56:17;;;;;;;;;18.00;18.00;;;;;14.84;85.88;98516.56;4591960;28;3574246;-82
2021/10/03 08:58:43;;;;;;;;;1.67;0.67;;;;;14.89;85.42;98519.56;4617916;28;2732593;-80
2021/10/03 09:01:13;;;;;;;;;1.60;1.60;;;;;14.86;85.56;98519.88;4620673;28;2740953;-80
2021/10/03 09:03:39;;;;;;;;;34.50;31.00;;;;;14.94;85.78;98514.56;4593646;28;2852470;-80
2021/10/03 09:06:07;;;;;;;;;0.80;0.80;;;;;15.00;85.84;98527.28;4618708;28;2727365;-81
2021/10/03 09:08:43;;;;;;;;;3.17;3.17;;;;;14.99;85.47;98535.47;4620368;28;2737794;-81
2021/10/03 09:11:13;;;;;;;;;1.50;1.50;;;;;15.05;85.94;98539.34;4642869;28;2725294;-80
2021/10/03 09:13:44;;;;;;;;;0.00;0.00;;;;;15.11;86.03;98600.28;4643270;28;2725306;-80
2021/10/03 09:16:17;;;;;;;;;0.00;0.00;;;;;15.08;84.54;98617.50;4621464;28;2712795;-80
2021/10/03 09:18:48;;;;;;;;;1.00;0.00;;;;;14.98;81.97;98655.06;4620936;28;2722169;-80
2021/10/03 09:21:28;;;;;;;;;0.00;0.00;;;;;14.73;81.16;98666.63;4620964;28;2710723;-81
2021/10/03 09:24:00;;;;;;;;;0.00;0.00;;;;;14.46;81.27;98671.09;4623093;28;2698294;-81
2021/10/03 09:26:28;;;;;;;;;0.00;0.00;;;;;14.24;81.45;98675.97;4623894;28;2691938;-80
2021/10/03 09:28:56;;;;;;;;;0.00;0.00;;;;;14.07;81.63;98680.31;4622762;28;2708675;-80
2021/10/03 09:31:24;;;;;;;;;0.00;0.00;;;;;13.87;82.16;98684.16;4622826;28;2708601;-80
2021/10/03 09:33:57;;;;;;;;;0.00;0.00;;;;;13.76;82.20;98698.56;4623144;28;2696153;-80
2021/10/03 09:36:29;;;;;;;;;0.00;0.00;;;;;13.74;82.24;98740.59;4622537;28;2703939;-81
2021/10/03 09:38:59;;;;;;;;;0.00;0.00;;;;;13.67;82.29;98766.19;4622595;28;2708655;-81
2021/10/03 09:41:29;;;;;;;;;0.00;0.00;;;;;13.57;82.20;98799.16;4621996;28;2703384;-80
2021/10/03 09:44:00;;;;;;;;;0.00;0.00;;;;;13.51;82.11;98825.59;4622946;28;2694103;-81
2021/10/03 09:46:45;;;;;;;;;0.60;0.00;;;;;13.42;82.33;98838.81;4622283;28;2710707;-80
2021/10/03 09:49:33;;;;;;;;;0.00;0.00;;;;;13.37;82.75;98824.25;4623497;28;2691938;-80
2021/10/03 09:52:01;;;;;;;;;0.00;0.00;;;;;13.26;82.89;98801.19;4621836;28;2721156;-80
2021/10/03 09:54:32;;;;;;;;;0.00;0.00;;;;;13.21;82.97;98809.66;4621385;28;2694414;-84
2021/10/03 09:57:00;;;;;;;;;0.00;0.00;;;;;13.25;83.50;98807.50;4604103;28;2712822;-84
2021/10/03 09:59:28;;;;;;;;;0.00;0.00;;;;;13.21;82.94;98806.13;4621526;28;2706545;-80
2021/10/03 10:01:56;;;;;;;;;0.00;0.00;;;;;13.18;83.36;98820.63;4623334;28;2691974;-80
2021/10/03 10:04:23;;;;;;;;;0.00;0.00;;;;;13.23;83.66;98845.03;4623489;28;2695082;-80
2021/10/03 10:06:51;;;;;;;;;0.00;0.00;;;;;13.23;83.42;98873.56;4623234;28;2691985;-83
2021/10/03 10:09:22;;;;;;;;;0.00;0.00;;;;;13.29;82.82;98910.34;4621804;28;2700267;-84
2021/10/03 10:11:58;;;;;;;;;0.00;0.00;;;;;13.25;82.56;98939.16;4622192;28;2706983;-83
2021/10/03 10:14:29;;;;;;;;;0.00;0.00;;;;;13.13;82.81;98938.44;4620860;28;2721151;-83
2021/10/03 10:17:03;;;;;;;;;0.00;0.00;;;;;13.16;82.91;98934.66;4621124;28;2714881;-80
2021/10/03 10:19:41;;;;;;;;;0.00;0.00;;;;;13.22;83.48;98949.25;4621569;28;2715903;-82
2021/10/03 10:22:14;;;;;;;;;0.00;0.00;;;;;13.23;83.44;98975.78;4627154;28;2546202;-80
2021/10/03 10:24:49;;;;;;;;;0.00;0.00;;;;;13.26;83.55;99006.72;4618441;28;2727358;-80
2021/10/03 10:27:29;;;;;;;;;0.60;0.00;;;;;13.28;83.43;99028.75;4618593;28;2727377;-82
2021/10/03 10:30:02;;;;;;;;;0.00;0.00;;;;;13.26;83.00;99028.06;4620390;28;2721134;-82
2021/10/03 10:32:51;;;;;;;;;0.00;0.00;;;;;13.22;82.59;99018.63;4621524;28;2712778;-81
2021/10/03 10:35:29;;;;;;;;;0.00;0.00;;;;;13.15;82.44;99012.19;4619674;28;2719028;-82
2021/10/03 10:37:56;;;;;;;;;0.00;0.00;;;;;13.18;82.42;99039.44;4621108;28;2712762;-81
2021/10/03 10:40:24;;;;;;;;;0.00;0.00;;;;;13.16;82.19;99046.72;4619929;28;2725325;-80
2021/10/03 10:42:52;;;;;;;;;0.00;0.00;;;;;13.13;82.48;99045.16;4620244;28;2724240;-81
2021/10/03 10:45:41;;;;;;;;;0.00;0.00;;;;;13.10;83.10;99049.97;4619770;28;2729821;-80
2021/10/03 10:48:08;;;;;;;;;0.00;0.00;;;;;13.19;83.31;99066.97;4619795;28;2733937;-80
2021/10/03 10:50:39;;;;;;;;;0.00;0.00;;;;;13.22;83.16;99072.00;4617635;28;2733604;-80
2021/10/03 10:53:38;;;;;;;;;0.00;0.00;;;;;13.24;83.11;99086.91;4601949;28;2728391;-80
2021/10/03 10:56:06;;;;;;;;;0.00;0.00;;;;;13.39;83.58;99079.38;4618366;28;2725286;-81
2021/10/03 10:58:59;;;;;;;;;0.00;0.00;;;;;13.60;84.00;99035.69;4620215;28;2722201;-80
2021/10/03 11:01:29;;;;;;;;;0.60;0.60;;;;;13.80;84.08;99056.03;4619733;28;2725258;-81
2021/10/03 11:03:59;;;;;;;;;0.00;0.00;;;;;13.96;83.78;99059.94;4617786;28;2727409;-81
2021/10/03 11:06:26;;;;;;;;;1.60;0.00;;;;;14.13;83.04;99090.44;4619828;28;2727340;-81
2021/10/03 11:08:57;;;;;;;;;1.00;1.00;;;;;14.20;82.69;99122.81;4618451;28;2737846;-81
2021/10/03 11:11:33;;;;;;;;;0.80;0.80;;;;;14.25;82.91;99134.75;4619180;28;2735670;-80
2021/10/03 11:14:17;;;;;;;;;0.00;0.00;;;;;14.23;82.03;99126.00;4620000;28;2723231;-80
2021/10/03 11:16:47;;;;;;;;;0.00;0.00;;;;;14.20;81.32;99118.28;4620075;28;2729425;-81
2021/10/03 11:19:30;;;;;;;;;0.00;0.00;;;;;14.25;81.40;99129.41;4620150;28;2729436;-81
2021/10/03 11:22:20;;;;;;;;;0.00;0.00;;;;;14.37;80.81;99146.13;4619137;28;2728383;-80